Time;durP1;ratioP1;P1;durP2;ratioP2;P2;SDS_P1;SDS_P2;PMS_P1;PMS_P2;Temp;Humidity;BMP_temperature;BMP_pressure;BME280_temperature;BME280_humidity;BME280_pressure;Samples;Min_cycle;Max_cycle;Signal;HPM_P1;HPM_P2
2023/07/13 00:01:35;;;;;;;11.10;2.85;;;16.10;99.90;;;;;;6120839;23;20010;-81
2023/07/13 00:04:03;;;;;;;11.73;2.88;;;16.10;99.90;;;;;;6121588;23;20446;-82
2023/07/13 00:06:32;;;;;;;12.68;3.15;;;16.10;99.90;;;;;;6223815;23;20018;-81
2023/07/13 00:08:59;;;;;;;12.88;3.03;;;16.00;99.90;;;;;;6121091;23;20022;-81
2023/07/13 00:11:28;;;;;;;9.05;2.53;;;16.00;99.90;;;;;;6224018;23;20076;-81
2023/07/13 00:13:53;;;;;;;14.70;3.47;;;15.90;99.90;;;;;;6223776;23;20487;-81
2023/07/13 00:16:19;;;;;;;9.65;2.65;;;15.90;99.90;;;;;;6222701;23;20104;-81
2023/07/13 00:18:46;;;;;;;11.05;3.00;;;15.80;99.90;;;;;;6223832;23;20025;-81
2023/07/13 00:21:13;;;;;;;8.65;2.88;;;15.70;99.90;;;;;;6121638;23;20089;-81
2023/07/13 00:23:41;;;;;;;11.98;2.80;;;15.70;99.90;;;;;;6222420;23;20014;-81
2023/07/13 00:26:11;;;;;;;13.70;3.63;;;15.60;99.90;;;;;;6223799;23;20029;-81
2023/07/13 00:28:39;;;;;;;12.82;3.00;;;15.60;99.90;;;;;;6121619;23;20053;-81
2023/07/13 00:31:06;;;;;;;9.52;3.00;;;15.50;99.90;;;;;;6222285;23;20489;-81
2023/07/13 00:33:33;;;;;;;11.48;2.88;;;15.50;99.90;;;;;;6223216;23;20052;-81
2023/07/13 00:35:58;;;;;;;12.85;2.90;;;15.50;99.90;;;;;;6224175;23;20025;-81
2023/07/13 00:38:24;;;;;;;11.77;3.10;;;15.40;99.90;;;;;;6120715;22;20022;-81
2023/07/13 00:40:50;;;;;;;10.23;2.92;;;15.40;99.90;;;;;;6121617;23;20330;-81
2023/07/13 00:43:22;;;;;;;11.30;3.17;;;15.40;99.90;;;;;;6223052;23;20121;-81
2023/07/13 00:45:48;;;;;;;11.43;2.70;;;15.30;99.90;;;;;;6223170;23;20196;-81
2023/07/13 00:48:20;;;;;;;13.20;2.90;;;15.40;99.90;;;;;;6122114;23;20105;-81
2023/07/13 00:50:50;;;;;;;10.43;3.17;;;15.40;99.90;;;;;;6222627;23;20342;-81
2023/07/13 00:53:16;;;;;;;10.27;2.92;;;15.40;99.90;;;;;;6121694;23;20049;-82
2023/07/13 00:55:42;;;;;;;9.57;2.72;;;15.30;99.90;;;;;;6121148;23;20068;-81
2023/07/13 00:58:08;;;;;;;14.10;3.15;;;15.40;99.90;;;;;;6222214;23;20026;-81
2023/07/13 01:00:38;;;;;;;17.50;3.08;;;15.40;99.90;;;;;;6121364;23;20345;-81
2023/07/13 01:03:04;;;;;;;10.65;2.90;;;15.40;99.90;;;;;;6121773;23;20485;-81
2023/07/13 01:05:33;;;;;;;11.77;2.92;;;15.40;99.90;;;;;;6120071;23;20477;-81
2023/07/13 01:08:00;;;;;;;11.73;3.10;;;15.40;99.90;;;;;;6222999;23;20101;-82
2023/07/13 01:10:26;;;;;;;11.88;2.95;;;15.40;99.90;;;;;;6121697;23;20028;-81
2023/07/13 01:12:53;;;;;;;10.68;3.00;;;15.50;99.90;;;;;;6221921;23;20033;-81
2023/07/13 01:15:40;;;;;;;12.07;2.75;;;15.50;99.90;;;;;;6121371;23;20445;-81
2023/07/13 01:18:10;;;;;;;11.77;3.50;;;15.50;99.90;;;;;;6222345;23;20025;-81
2023/07/13 01:20:37;;;;;;;12.45;3.13;;;15.50;99.90;;;;;;6221553;23;20021;-81
2023/07/13 01:23:07;;;;;;;18.30;3.83;;;15.60;99.90;;;;;;6121714;23;20045;-81
2023/07/13 01:25:35;;;;;;;14.32;3.35;;;15.60;99.90;;;;;;6222033;23;20025;-81
2023/07/13 01:28:02;;;;;;;11.57;3.30;;;15.60;99.90;;;;;;6222811;23;20018;-81
2023/07/13 01:30:36;;;;;;;14.38;3.53;;;15.60;99.90;;;;;;6122085;22;20014;-81
2023/07/13 01:33:01;;;;;;;10.18;3.20;;;15.70;99.90;;;;;;6222300;23;20014;-81
2023/07/13 01:35:27;;;;;;;15.90;3.30;;;15.70;99.90;;;;;;6121655;23;20425;-81
2023/07/13 01:37:53;;;;;;;11.52;3.13;;;15.70;99.90;;;;;;6120832;23;20491;-81
2023/07/13 01:40:20;;;;;;;10.15;2.90;;;15.70;99.90;;;;;;6221910;23;20037;-81
2023/07/13 01:42:46;;;;;;;12.00;3.33;;;15.70;99.90;;;;;;6222846;23;20453;-81
2023/07/13 01:45:12;;;;;;;12.02;3.28;;;15.70;99.90;;;;;;6121774;23;20014;-81
2023/07/13 01:47:37;;;;;;;12.43;3.45;;;15.70;99.90;;;;;;6221878;23;20022;-81
2023/07/13 01:50:03;;;;;;;10.00;2.63;;;15.70;99.90;;;;;;6121761;23;20010;-81
2023/07/13 01:52:29;;;;;;;12.15;3.00;;;15.70;99.90;;;;;;6120709;23;20018;-81
2023/07/13 01:54:55;;;;;;;11.40;3.10;;;15.70;99.90;;;;;;6222176;23;20075;-81
2023/07/13 01:57:20;;;;;;;11.98;3.05;;;15.70;99.90;;;;;;6121286;23;20398;-81
2023/07/13 01:59:46;;;;;;;13.85;3.05;;;15.70;99.90;;;;;;6119393;23;20030;-81
2023/07/13 02:02:12;;;;;;;13.15;3.20;;;15.80;99.90;;;;;;6221864;23;20041;-82
2023/07/13 02:04:37;;;;;;;12.43;3.10;;;15.70;99.90;;;;;;6221998;23;20315;-82
2023/07/13 02:07:03;;;;;;;12.18;3.25;;;15.70;99.90;;;;;;6121014;22;20378;-81
2023/07/13 02:09:29;;;;;;;10.25;3.05;;;15.80;99.90;;;;;;6221572;23;20014;-81
2023/07/13 02:11:55;;;;;;;13.93;3.05;;;15.70;99.90;;;;;;6222947;23;20022;-81
2023/07/13 02:14:21;;;;;;;12.05;3.00;;;15.70;99.90;;;;;;6222997;23;20014;-81
2023/07/13 02:16:48;;;;;;;11.90;3.28;;;15.80;99.90;;;;;;6221614;23;20024;-81
2023/07/13 02:19:14;;;;;;;13.95;3.10;;;15.80;99.90;;;;;;6222697;23;20104;-81
2023/07/13 02:21:40;;;;;;;11.50;3.15;;;15.80;99.90;;;;;;6222188;23;20010;-81
2023/07/13 02:24:05;;;;;;;13.52;3.20;;;15.80;99.90;;;;;;6223196;23;20025;-81
2023/07/13 02:26:31;;;;;;;10.90;3.47;;;15.80;99.90;;;;;;6222099;23;20088;-81
2023/07/13 02:28:57;;;;;;;15.27;4.45;;;15.80;99.90;;;;;;6222344;23;20380;-82
2023/07/13 02:31:23;;;;;;;16.52;3.95;;;15.80;99.90;;;;;;6222098;23;20018;-81
2023/07/13 02:33:48;;;;;;;15.52;3.53;;;15.80;99.90;;;;;;6223151;23;20392;-81
2023/07/13 02:36:16;;;;;;;11.40;3.20;;;15.80;99.90;;;;;;6221648;23;20025;-81
2023/07/13 02:38:42;;;;;;;11.35;3.70;;;15.80;99.90;;;;;;6120832;23;20021;-82
2023/07/13 02:41:08;;;;;;;13.32;3.42;;;15.70;99.90;;;;;;6121167;23;20029;-81
2023/07/13 02:43:35;;;;;;;14.27;3.72;;;15.70;99.90;;;;;;6120321;23;20087;-81
2023/07/13 02:46:06;;;;;;;14.70;3.72;;;15.70;99.90;;;;;;6222778;23;20060;-81
2023/07/13 02:48:33;;;;;;;11.23;3.67;;;15.70;99.90;;;;;;6120887;23;20018;-81
2023/07/13 02:50:59;;;;;;;14.27;4.03;;;15.70;99.90;;;;;;6223431;23;20026;-81
2023/07/13 02:53:24;;;;;;;13.40;3.30;;;15.70;99.90;;;;;;6124113;23;20064;-81
2023/07/13 02:55:50;;;;;;;14.20;3.60;;;15.70;99.90;;;;;;6222130;23;20014;-81
2023/07/13 02:58:17;;;;;;;11.32;3.50;;;15.70;99.90;;;;;;6221667;23;20199;-82
2023/07/13 03:00:43;;;;;;;15.43;4.43;;;15.70;99.90;;;;;;6120462;23;20442;-82
2023/07/13 03:03:09;;;;;;;14.98;3.90;;;15.70;99.90;;;;;;6120922;23;20022;-81
2023/07/13 03:05:38;;;;;;;15.18;3.60;;;15.70;99.90;;;;;;6220807;23;20016;-81
2023/07/13 03:08:03;;;;;;;16.20;4.63;;;15.70;99.90;;;;;;6222290;23;20632;-82
2023/07/13 03:10:29;;;;;;;11.93;3.35;;;15.70;99.90;;;;;;6120556;23;20056;-81
2023/07/13 03:12:55;;;;;;;10.93;3.22;;;15.70;99.90;;;;;;6118652;23;20033;-81
2023/07/13 03:15:21;;;;;;;12.05;3.78;;;15.60;99.90;;;;;;6120904;23;20424;-81
2023/07/13 03:17:47;;;;;;;16.27;3.78;;;15.60;99.90;;;;;;6119657;22;20026;-81
2023/07/13 03:20:13;;;;;;;17.92;3.80;;;15.60;99.90;;;;;;6118985;23;20144;-81
2023/07/13 03:22:41;;;;;;;15.43;3.60;;;15.60;99.90;;;;;;6120550;23;20346;-81
2023/07/13 03:25:07;;;;;;;13.73;3.63;;;15.50;99.90;;;;;;6120024;23;20022;-81
2023/07/13 03:27:36;;;;;;;11.38;3.70;;;15.60;99.90;;;;;;6120522;23;20010;-81
2023/07/13 03:30:03;;;;;;;11.95;3.85;;;15.60;99.90;;;;;;6222566;23;20349;-82
2023/07/13 03:32:29;;;;;;;16.83;3.75;;;15.60;99.90;;;;;;6246577;22;20372;-81
2023/07/13 03:34:55;;;;;;;12.60;3.60;;;15.50;99.90;;;;;;6222766;23;20112;-81
2023/07/13 03:37:20;;;;;;;11.63;3.85;;;15.60;99.90;;;;;;6222768;23;20140;-81
2023/07/13 03:39:46;;;;;;;13.63;3.97;;;15.60;99.90;;;;;;6220608;23;20064;-82
2023/07/13 03:42:12;;;;;;;12.20;3.95;;;15.60;99.90;;;;;;6222206;23;20040;-81
2023/07/13 03:44:39;;;;;;;15.80;4.13;;;15.60;99.90;;;;;;6121468;22;20010;-81
2023/07/13 03:47:05;;;;;;;12.82;3.55;;;15.60;99.90;;;;;;6222955;23;20457;-81
2023/07/13 03:49:31;;;;;;;13.63;3.60;;;15.60;99.90;;;;;;6119994;23;20029;-81
2023/07/13 03:51:57;;;;;;;10.60;3.38;;;15.60;99.90;;;;;;6224258;23;20087;-81
2023/07/13 03:54:23;;;;;;;14.93;3.50;;;15.60;99.90;;;;;;6223229;23;20497;-81
2023/07/13 03:56:49;;;;;;;11.77;3.60;;;15.60;99.90;;;;;;6121538;23;20476;-81
2023/07/13 03:59:14;;;;;;;12.15;3.53;;;15.60;99.90;;;;;;6224204;23;20063;-81
2023/07/13 04:01:40;;;;;;;15.88;4.03;;;15.60;99.90;;;;;;6120452;23;20010;-81
2023/07/13 04:04:06;;;;;;;12.02;3.92;;;15.50;99.90;;;;;;6222762;23;20022;-82
2023/07/13 04:06:32;;;;;;;11.68;3.67;;;15.50;99.90;;;;;;6222845;23;20018;-81
2023/07/13 04:09:00;;;;;;;12.50;3.60;;;15.50;99.90;;;;;;6120756;22;20382;-81
2023/07/13 04:11:29;;;;;;;10.88;3.53;;;15.40;99.90;;;;;;6222397;23;20041;-81
2023/07/13 04:13:55;;;;;;;11.38;3.60;;;15.40;99.90;;;;;;6223696;23;20119;-81
2023/07/13 04:16:21;;;;;;;13.07;3.72;;;15.50;99.90;;;;;;6120404;23;20018;-81
2023/07/13 04:18:48;;;;;;;12.07;3.83;;;15.40;99.90;;;;;;6121491;23;20380;-81
2023/07/13 04:21:14;;;;;;;13.93;3.78;;;15.40;99.90;;;;;;6222958;23;20014;-82
2023/07/13 04:23:40;;;;;;;13.25;3.80;;;15.40;99.90;;;;;;6223151;23;20022;-82
2023/07/13 04:26:09;;;;;;;10.80;3.65;;;15.40;99.90;;;;;;6122393;22;20067;-81
2023/07/13 04:28:37;;;;;;;13.65;4.03;;;15.40;99.90;;;;;;6222491;23;20022;-81
2023/07/13 04:31:03;;;;;;;12.55;3.92;;;15.40;99.90;;;;;;6122065;23;20316;-81
2023/07/13 04:33:29;;;;;;;12.88;4.07;;;15.40;99.90;;;;;;6223275;23;20083;-81
2023/07/13 04:35:59;;;;;;;13.93;3.70;;;15.40;99.90;;;;;;6222818;23;20101;-81
2023/07/13 04:38:29;;;;;;;12.18;3.58;;;15.40;99.90;;;;;;6223949;23;20500;-81
2023/07/13 04:40:57;;;;;;;15.10;4.03;;;15.40;99.90;;;;;;6122098;23;20061;-82
2023/07/13 04:43:23;;;;;;;16.02;3.85;;;15.40;99.90;;;;;;6120915;23;20056;-81
2023/07/13 04:45:51;;;;;;;16.20;3.72;;;15.50;99.90;;;;;;6223319;23;20022;-81
2023/07/13 04:48:20;;;;;;;14.90;4.05;;;15.40;99.90;;;;;;6121903;23;20014;-81
2023/07/13 04:50:46;;;;;;;14.02;3.63;;;15.40;99.90;;;;;;6120963;23;20037;-81
2023/07/13 04:53:12;;;;;;;11.75;4.00;;;15.40;99.90;;;;;;6121624;23;20018;-82
2023/07/13 04:55:38;;;;;;;14.00;3.90;;;15.40;99.90;;;;;;6222879;23;20097;-81
2023/07/13 04:58:04;;;;;;;12.43;3.67;;;15.40;99.90;;;;;;6222632;23;20018;-81
2023/07/13 05:00:30;;;;;;;13.48;4.10;;;15.40;99.90;;;;;;6121662;23;20018;-82
2023/07/13 05:02:57;;;;;;;12.55;3.60;;;15.40;99.90;;;;;;6224002;23;20060;-81
2023/07/13 05:05:25;;;;;;;13.63;3.70;;;15.30;99.90;;;;;;6120398;23;20507;-81
2023/07/13 05:07:51;;;;;;;13.73;4.22;;;15.30;99.90;;;;;;6223325;23;20067;-81
2023/07/13 05:10:17;;;;;;;12.18;3.70;;;15.30;99.90;;;;;;6121751;23;20014;-82
2023/07/13 05:12:42;;;;;;;13.38;4.13;;;15.20;99.90;;;;;;6222259;23;20029;-81
2023/07/13 05:15:10;;;;;;;13.07;4.10;;;15.20;99.90;;;;;;6121833;23;20095;-81
2023/07/13 05:17:38;;;;;;;12.23;4.07;;;15.20;99.90;;;;;;6120591;22;20014;-81
2023/07/13 05:20:05;;;;;;;14.75;4.30;;;15.20;99.90;;;;;;6121904;23;20011;-82
2023/07/13 05:22:31;;;;;;;14.32;4.50;;;15.20;99.90;;;;;;6223118;23;20388;-81
2023/07/13 05:24:57;;;;;;;11.98;3.97;;;15.30;99.90;;;;;;6221901;23;20022;-82
2023/07/13 05:27:23;;;;;;;13.43;3.95;;;15.30;99.90;;;;;;6121552;23;20093;-82
2023/07/13 05:29:49;;;;;;;12.35;3.88;;;15.40;99.90;;;;;;6121453;23;20097;-82
2023/07/13 05:32:17;;;;;;;11.35;3.70;;;15.40;99.90;;;;;;6222986;23;20064;-81
2023/07/13 05:34:43;;;;;;;15.02;4.60;;;15.50;99.90;;;;;;6120910;23;20452;-82
2023/07/13 05:37:09;;;;;;;12.13;3.65;;;15.60;99.90;;;;;;6223239;23;20097;-82
2023/07/13 05:39:34;;;;;;;13.65;4.38;;;15.60;99.90;;;;;;6118593;23;20096;-82
2023/07/13 05:42:02;;;;;;;15.32;4.18;;;15.70;99.90;;;;;;6222802;23;20029;-82
2023/07/13 05:44:28;;;;;;;17.35;4.10;;;15.80;99.90;;;;;;6223181;23;20018;-82
2023/07/13 05:46:55;;;;;;;16.85;3.80;;;15.80;99.90;;;;;;6222488;23;20136;-82
2023/07/13 05:49:21;;;;;;;15.05;4.18;;;15.90;99.90;;;;;;6222992;23;20028;-82
2023/07/13 05:51:47;;;;;;;11.30;3.95;;;16.00;99.90;;;;;;6222617;23;20022;-82
2023/07/13 05:54:13;;;;;;;13.07;3.47;;;16.10;99.90;;;;;;6222158;23;20025;-82
2023/07/13 05:56:38;;;;;;;14.60;3.90;;;16.10;99.90;;;;;;6223038;23;20014;-82
2023/07/13 05:59:04;;;;;;;12.10;3.83;;;16.20;99.90;;;;;;6230536;23;20021;-81
2023/07/13 06:01:31;;;;;;;11.75;3.75;;;16.30;99.90;;;;;;6224934;23;20028;-80
2023/07/13 06:03:57;;;;;;;13.23;3.58;;;16.30;99.90;;;;;;6223336;23;20018;-81
2023/07/13 06:06:22;;;;;;;14.55;4.10;;;16.40;99.90;;;;;;6222749;23;20021;-83
2023/07/13 06:08:48;;;;;;;10.65;3.60;;;16.50;99.90;;;;;;6221391;23;20025;-81
2023/07/13 06:11:16;;;;;;;13.95;3.90;;;16.50;99.90;;;;;;6223055;23;20097;-80
2023/07/13 06:13:42;;;;;;;13.18;3.88;;;16.60;99.90;;;;;;6222692;23;20028;-80
2023/07/13 06:16:08;;;;;;;12.48;3.72;;;16.60;99.90;;;;;;6120844;23;20333;-80
2023/07/13 06:18:35;;;;;;;11.55;4.18;;;16.60;99.90;;;;;;6222632;23;20388;-79
2023/07/13 06:21:06;;;;;;;15.48;3.92;;;16.70;99.90;;;;;;6222132;23;20025;-79
2023/07/13 06:23:32;;;;;;;11.15;4.00;;;16.70;99.90;;;;;;6121056;23;20085;-79
2023/07/13 06:25:57;;;;;;;13.95;4.13;;;16.80;99.90;;;;;;6223566;23;20485;-80
2023/07/13 06:28:23;;;;;;;13.98;3.85;;;16.90;99.90;;;;;;6121009;23;20334;-80
2023/07/13 06:30:49;;;;;;;15.20;3.83;;;17.00;99.90;;;;;;6121473;22;20022;-80
2023/07/13 06:33:14;;;;;;;11.82;3.80;;;17.00;99.90;;;;;;6121582;23;20022;-80
2023/07/13 06:35:40;;;;;;;13.95;3.88;;;17.00;99.90;;;;;;6221535;23;20021;-80
2023/07/13 06:38:06;;;;;;;16.40;4.10;;;17.10;99.90;;;;;;6222576;23;20022;-80
2023/07/13 06:40:31;;;;;;;14.35;4.15;;;17.20;99.90;;;;;;6121354;23;20442;-80
2023/07/13 06:42:57;;;;;;;11.82;3.75;;;17.20;99.90;;;;;;6120691;23;20018;-80
2023/07/13 06:45:23;;;;;;;16.58;4.00;;;17.30;99.90;;;;;;6223283;23;20097;-79
2023/07/13 06:47:49;;;;;;;13.88;4.25;;;17.40;99.90;;;;;;6121364;23;20025;-81
2023/07/13 06:50:15;;;;;;;15.63;3.95;;;17.40;99.90;;;;;;6222045;23;20006;-80
2023/07/13 06:52:40;;;;;;;13.55;4.28;;;17.50;99.90;;;;;;6222752;23;20041;-79
2023/07/13 06:55:06;;;;;;;11.57;3.70;;;17.60;99.90;;;;;;6222826;23;20044;-80
2023/07/13 06:57:32;;;;;;;12.57;3.72;;;17.70;99.90;;;;;;6221600;23;20507;-80
2023/07/13 06:59:58;;;;;;;12.85;3.92;;;17.80;99.90;;;;;;6121557;23;20021;-80
2023/07/13 07:02:24;;;;;;;14.15;3.70;;;17.90;99.90;;;;;;6121482;23;20107;-80
2023/07/13 07:04:49;;;;;;;13.57;3.50;;;18.10;99.90;;;;;;6119753;23;20010;-81
2023/07/13 07:07:15;;;;;;;11.77;4.05;;;18.30;99.90;;;;;;6222272;23;20350;-79
2023/07/13 07:09:41;;;;;;;11.25;3.58;;;18.50;99.90;;;;;;6221983;23;20102;-80
2023/07/13 07:12:07;;;;;;;12.02;3.65;;;18.80;99.90;;;;;;6221927;23;20024;-80
2023/07/13 07:14:34;;;;;;;12.30;3.65;;;19.00;99.90;;;;;;6120700;23;20049;-80
2023/07/13 07:17:00;;;;;;;13.57;3.70;;;19.30;99.90;;;;;;6221955;23;20026;-80
2023/07/13 07:19:26;;;;;;;12.55;3.60;;;19.50;99.90;;;;;;6223370;23;20488;-80
2023/07/13 07:21:51;;;;;;;13.02;4.00;;;19.50;99.90;;;;;;6224095;23;20391;-80
2023/07/13 07:24:17;;;;;;;11.82;3.80;;;19.40;99.90;;;;;;6223403;23;20102;-80
2023/07/13 07:26:43;;;;;;;12.82;3.92;;;19.40;99.90;;;;;;6122302;23;20052;-79
2023/07/13 07:29:08;;;;;;;10.55;3.70;;;19.30;99.90;;;;;;6122747;22;20045;-80
2023/07/13 07:31:34;;;;;;;11.45;3.50;;;19.20;99.90;;;;;;6222480;23;20022;-79
2023/07/13 07:34:00;;;;;;;12.85;3.83;;;19.30;99.90;;;;;;6121318;23;20045;-79
2023/07/13 07:36:25;;;;;;;13.90;4.43;;;19.30;99.90;;;;;;6122313;23;20018;-80
2023/07/13 07:38:51;;;;;;;14.05;4.03;;;19.20;99.90;;;;;;6220655;23;20022;-78
2023/07/13 07:41:17;;;;;;;13.82;3.92;;;19.30;99.90;;;;;;6119551;23;20018;-79
2023/07/13 07:43:42;;;;;;;10.43;3.90;;;19.20;99.90;;;;;;6121586;23;20048;-79
2023/07/13 07:46:08;;;;;;;11.20;3.90;;;19.20;99.90;;;;;;6120715;23;20014;-80
2023/07/13 07:48:37;;;;;;;13.82;4.43;;;19.20;99.90;;;;;;6223012;23;20097;-79
2023/07/13 07:51:02;;;;;;;14.98;4.10;;;19.10;99.90;;;;;;6224185;23;20089;-79
2023/07/13 07:53:28;;;;;;;15.13;4.35;;;19.00;99.90;;;;;;6223180;23;20080;-79
2023/07/13 07:55:54;;;;;;;12.70;4.38;;;18.90;99.90;;;;;;6224351;23;20326;-79
2023/07/13 07:58:20;;;;;;;12.85;3.92;;;18.80;99.90;;;;;;6223244;23;20469;-81
2023/07/13 08:00:45;;;;;;;11.63;3.70;;;18.70;99.90;;;;;;6121122;23;20159;-82
2023/07/13 08:03:11;;;;;;;12.75;3.78;;;18.70;99.90;;;;;;6224186;23;20406;-83
2023/07/13 08:05:37;;;;;;;12.20;3.75;;;18.80;99.90;;;;;;6121547;23;20037;-81
2023/07/13 08:08:03;;;;;;;13.32;4.28;;;19.10;99.90;;;;;;6222973;23;20057;-80
2023/07/13 08:10:29;;;;;;;14.68;4.07;;;19.00;99.90;;;;;;6224449;23;20017;-82
2023/07/13 08:12:54;;;;;;;10.98;4.03;;;19.10;99.90;;;;;;6224106;23;20014;-82
2023/07/13 08:15:20;;;;;;;12.90;4.30;;;19.20;99.90;;;;;;6222877;23;20010;-81
2023/07/13 08:17:48;;;;;;;14.30;3.97;;;19.10;99.90;;;;;;6223231;23;20100;-81
2023/07/13 08:20:13;;;;;;;12.57;4.10;;;19.30;99.90;;;;;;6224155;23;20015;-81
2023/07/13 08:22:39;;;;;;;12.02;4.15;;;19.30;99.90;;;;;;6222983;23;20050;-82
2023/07/13 08:25:05;;;;;;;13.38;4.20;;;19.40;99.90;;;;;;6223707;23;20068;-81
2023/07/13 08:27:31;;;;;;;14.30;4.22;;;19.60;99.90;;;;;;6222713;23;20053;-82
2023/07/13 08:29:57;;;;;;;15.27;3.90;;;19.70;99.90;;;;;;6121597;23;20022;-81
2023/07/13 08:32:23;;;;;;;15.50;4.32;;;19.80;99.90;;;;;;6224057;23;20025;-81
2023/07/13 08:34:49;;;;;;;13.55;4.40;;;20.00;99.90;;;;;;6121161;22;20018;-83
2023/07/13 08:37:16;;;;;;;12.07;4.55;;;20.10;99.90;;;;;;6223646;23;20096;-81
2023/07/13 08:39:42;;;;;;;14.70;4.22;;;20.10;99.90;;;;;;6223668;23;20014;-81
2023/07/13 08:42:22;;;;;;;12.40;5.25;;;20.20;99.90;;;;;;6137830;22;20022;-82
2023/07/13 08:44:51;;;;;;;13.48;4.40;;;20.10;99.90;;;;;;6150767;23;20017;-81
2023/07/13 08:50:05;;;;;;;14.38;4.35;;;20.30;99.90;;;;;;6149389;22;20021;-81
2023/07/13 08:52:36;;;;;;;13.05;4.95;;;20.40;99.90;;;;;;6253544;22;20048;-83
2023/07/13 08:55:25;;;;;;;13.27;5.05;;;20.50;99.90;;;;;;6254281;22;20018;-82
2023/07/13 08:58:17;;;;;;;15.57;5.70;;;20.60;99.90;;;;;;6150232;23;20014;-82
2023/07/13 09:00:57;;;;;;;15.80;5.03;;;20.50;99.90;;;;;;6253842;22;20024;-82
2023/07/13 09:03:27;;;;;;;16.92;5.30;;;20.50;99.90;;;;;;6253259;22;20024;-82
2023/07/13 09:05:59;;;;;;;15.65;4.93;;;20.60;99.90;;;;;;6253751;22;20029;-80
2023/07/13 09:08:37;;;;;;;15.83;5.43;;;20.80;99.90;;;;;;6254416;22;20013;-83
2023/07/13 09:11:29;;;;;;;14.75;5.50;;;21.00;99.90;;;;;;6253151;22;20093;-83
2023/07/13 09:14:17;;;;;;;15.27;5.25;;;21.10;99.90;;;;;;6151504;23;20022;-83
2023/07/13 09:16:44;;;;;;;14.80;5.60;;;20.90;99.90;;;;;;6150523;23;20075;-83
2023/07/13 09:19:19;;;;;;;14.60;5.78;;;20.60;99.90;;;;;;6254022;22;20022;-83
2023/07/13 09:21:45;;;;;;;15.57;5.70;;;20.30;99.90;;;;;;6253521;22;20025;-84
2023/07/13 09:24:52;;;;;;;15.63;6.35;;;20.10;99.90;;;;;;6226675;22;20052;-85
2023/07/13 09:27:21;;;;;;;12.85;5.97;;;19.80;99.90;;;;;;6151330;23;20017;-83
2023/07/13 09:29:56;;;;;;;15.48;5.70;;;19.30;99.90;;;;;;6253623;22;20464;-84
2023/07/13 09:32:24;;;;;;;12.15;3.85;;;18.70;99.90;;;;;;6252639;22;20018;-83
2023/07/13 09:34:54;;;;;;;9.77;3.30;;;18.10;99.90;;;;;;6253658;22;20017;-84
2023/07/13 09:37:29;;;;;;;8.23;2.28;;;17.30;99.90;;;;;;6253153;22;20092;-83
2023/07/13 09:39:58;;;;;;;7.75;2.40;;;16.60;99.90;;;;;;6149646;23;20337;-82
2023/07/13 09:42:25;;;;;;;8.60;2.22;;;16.00;99.90;;;;;;6151653;23;20076;-80
2023/07/13 09:45:02;;;;;;;11.25;2.97;;;15.30;99.90;;;;;;6252233;22;20021;-84
2023/07/13 09:47:37;;;;;;;9.75;3.95;;;14.70;99.90;;;;;;6253054;22;20024;-81
2023/07/13 09:50:07;;;;;;;9.32;3.40;;;14.40;99.90;;;;;;6253348;22;20018;-81
2023/07/13 09:52:42;;;;;;;8.88;3.20;;;14.20;99.90;;;;;;6252395;22;20029;-81
2023/07/13 09:55:32;;;;;;;7.35;2.60;;;14.10;99.90;;;;;;6150645;23;20073;-81
2023/07/13 09:58:02;;;;;;;6.53;2.30;;;14.00;99.90;;;;;;6253413;22;20107;-81
2023/07/13 10:00:29;;;;;;;7.25;2.22;;;14.00;99.90;;;;;;6252679;22;20044;-81
2023/07/13 10:03:20;;;;;;;6.65;2.10;;;13.90;99.90;;;;;;6151015;23;20441;-81
2023/07/13 10:05:50;;;;;;;7.88;2.10;;;13.90;99.90;;;;;;6238741;22;20017;-82
2023/07/13 10:08:28;;;;;;;7.20;2.20;;;14.00;99.90;;;;;;6252382;22;20096;-81
2023/07/13 10:11:02;;;;;;;6.90;2.00;;;14.20;99.90;;;;;;6253336;22;20014;-81
2023/07/13 10:13:34;;;;;;;7.30;2.10;;;14.30;99.90;;;;;;6150314;22;20101;-81
2023/07/13 10:16:01;;;;;;;8.95;2.40;;;14.60;99.90;;;;;;6150740;23;20009;-81
2023/07/13 10:18:29;;;;;;;6.82;2.13;;;14.80;99.90;;;;;;6252943;22;20333;-81
2023/07/13 10:21:21;;;;;;;8.13;2.60;;;15.00;99.90;;;;;;6252224;22;20052;-82
2023/07/13 10:24:13;;;;;;;6.90;2.40;;;15.20;99.90;;;;;;6150128;23;20394;-81
2023/07/13 10:26:45;;;;;;;7.70;2.30;;;15.50;99.90;;;;;;6226953;22;20052;-82
2023/07/13 10:29:14;;;;;;;6.93;2.47;;;15.70;99.90;;;;;;6148998;23;20417;-82
2023/07/13 10:31:41;;;;;;;6.97;2.45;;;15.90;99.90;;;;;;6250795;22;20465;-83
2023/07/13 10:34:12;;;;;;;7.30;2.10;;;16.10;99.90;;;;;;6252073;22;20071;-82
2023/07/13 10:36:47;;;;;;;6.57;2.17;;;16.20;99.90;;;;;;6150235;23;20377;-81
2023/07/13 10:39:22;;;;;;;8.10;2.38;;;16.40;99.90;;;;;;6150538;23;20048;-82
2023/07/13 10:42:01;;;;;;;7.88;2.83;;;16.50;99.90;;;;;;6252165;22;20331;-83
2023/07/13 10:44:30;;;;;;;8.40;2.90;;;16.70;99.90;;;;;;6253344;22;20040;-82
2023/07/13 10:47:02;;;;;;;8.65;3.13;;;16.60;99.90;;;;;;6253679;22;20022;-82
2023/07/13 10:49:30;;;;;;;8.02;3.47;;;16.60;99.90;;;;;;6251900;22;20055;-82
2023/07/13 10:51:56;;;;;;;10.80;3.97;;;16.80;99.90;;;;;;6252662;22;20329;-81
2023/07/13 10:54:35;;;;;;;9.98;4.30;;;17.00;99.90;;;;;;6251699;22;20079;-81
2023/07/13 10:57:20;;;;;;;11.32;5.00;;;17.40;99.90;;;;;;6252041;22;20017;-81
2023/07/13 11:00:08;;;;;;;10.77;5.60;;;17.70;99.90;;;;;;6252551;22;20092;-81
2023/07/13 11:02:34;;;;;;;13.32;6.97;;;18.00;99.90;;;;;;6251563;22;20010;-81
2023/07/13 11:05:27;;;;;;;13.43;7.38;;;18.30;99.90;;;;;;6252709;22;20018;-82
2023/07/13 11:08:02;;;;;;;12.85;6.90;;;18.50;99.90;;;;;;6251635;22;20035;-81
2023/07/13 11:10:46;;;;;;;12.52;7.13;;;18.60;99.90;;;;;;6150182;23;20022;-81
2023/07/13 11:13:38;;;;;;;11.98;6.70;;;18.80;99.90;;;;;;6252580;22;20033;-80
2023/07/13 11:16:16;;;;;;;12.77;6.57;;;18.70;99.90;;;;;;6253149;22;20452;-81
2023/07/13 11:18:46;;;;;;;12.50;6.45;;;18.80;99.90;;;;;;6252715;22;20022;-81
2023/07/13 11:21:15;;;;;;;13.60;6.78;;;18.90;99.90;;;;;;6252784;22;20039;-80
2023/07/13 11:23:45;;;;;;;12.20;6.95;;;18.90;99.90;;;;;;6251674;22;20049;-80
2023/07/13 11:26:43;;;;;;;12.88;6.75;;;19.00;99.90;;;;;;6150098;23;20017;-80
2023/07/13 11:29:37;;;;;;;14.55;7.47;;;18.80;99.90;;;;;;6251764;22;20014;-80
2023/07/13 11:32:21;;;;;;;;;;;18.70;99.90;;;;;;6235744;22;20050;-80
2023/07/13 11:34:47;;;;;;;15.13;6.43;;;18.50;99.90;;;;;;6248681;22;19963;-79
2023/07/13 11:37:18;;;;;;;12.35;6.07;;;18.50;99.90;;;;;;6149692;23;20021;-80
2023/07/13 11:39:45;;;;;;;7.68;3.58;;;18.30;99.90;;;;;;6149586;23;20013;-80
2023/07/13 11:42:17;;;;;;;8.30;3.45;;;18.00;99.90;;;;;;6149599;23;20009;-80
2023/07/13 11:44:47;;;;;;;7.65;3.08;;;17.70;99.90;;;;;;6149195;23;20048;-79
2023/07/13 11:47:22;;;;;;;7.65;3.55;;;17.50;99.90;;;;;;6252666;22;20533;-80
2023/07/13 11:49:59;;;;;;;8.27;3.28;;;17.40;99.90;;;;;;6252237;22;20067;-79
2023/07/13 11:52:37;;;;;;;8.35;2.90;;;17.40;99.90;;;;;;6251477;22;20018;-79
2023/07/13 11:55:13;;;;;;;7.30;3.20;;;17.50;99.90;;;;;;6149113;23;20315;-79
2023/07/13 11:57:45;;;;;;;8.65;3.47;;;17.90;99.90;;;;;;6252263;22;20118;-80
2023/07/13 12:00:15;;;;;;;7.80;3.25;;;18.50;99.90;;;;;;6251893;22;20024;-80
2023/07/13 12:02:44;;;;;;;8.95;3.50;;;19.10;99.90;;;;;;6144851;23;20013;-81
2023/07/13 12:05:15;;;;;;;9.43;3.78;;;19.50;99.90;;;;;;6252527;22;20438;-81
2023/07/13 12:07:41;;;;;;;9.48;4.10;;;19.60;99.90;;;;;;6253684;22;20384;-82
2023/07/13 12:10:32;;;;;;;9.82;4.35;;;19.90;99.90;;;;;;6151285;23;20067;-82
2023/07/13 12:13:02;;;;;;;10.23;4.72;;;20.30;99.90;;;;;;6150226;23;20022;-82
2023/07/13 12:15:38;;;;;;;9.52;4.63;;;20.70;99.90;;;;;;6151823;23;20018;-82
2023/07/13 12:18:22;;;;;;;10.57;4.15;;;21.00;99.90;;;;;;6151619;22;20018;-82
2023/07/13 12:20:48;;;;;;;12.70;4.53;;;21.20;99.90;;;;;;6150053;22;20062;-82
2023/07/13 12:23:30;;;;;;;10.35;3.70;;;21.40;99.90;;;;;;6151288;23;20085;-82
2023/07/13 12:25:58;;;;;;;9.55;4.10;;;21.40;99.90;;;;;;6253504;22;20089;-82
2023/07/13 12:28:34;;;;;;;12.30;5.00;;;21.90;99.90;;;;;;6252866;22;20102;-82
2023/07/13 12:31:01;;;;;;;10.10;4.15;;;22.20;99.90;;;;;;6254024;22;20068;-82
2023/07/13 12:33:29;;;;;;;8.77;4.10;;;22.10;99.90;;;;;;6254879;22;20017;-82
2023/07/13 12:35:55;;;;;;;12.05;4.25;;;22.30;99.90;;;;;;6150271;23;20018;-82
2023/07/13 12:38:24;;;;;;;10.52;4.50;;;22.40;99.90;;;;;;6253992;22;20071;-82
2023/07/13 12:40:51;;;;;;;10.30;4.60;;;22.40;99.90;;;;;;6149209;23;20499;-82
2023/07/13 12:43:19;;;;;;;10.65;4.00;;;22.30;99.90;;;;;;6254695;22;20029;-82
2023/07/13 12:46:15;;;;;;;10.77;3.83;;;21.70;99.90;;;;;;6151690;23;20075;-83
2023/07/13 12:48:57;;;;;;;9.93;4.07;;;21.30;99.90;;;;;;6149521;22;20021;-84
2023/07/13 12:51:37;;;;;;;12.45;4.60;;;20.50;99.90;;;;;;6254398;22;20030;-84